Weather reports worldwide

Advertisment
Monte Terminillo, Italy (16219): temperature & dewpoint: 12.09.2019 06:00:00 - 18.09.2019 06:00:00 (CEST)Monte Terminillo, Italy (16219): wind speed: 12.09.2019 06:00:00 - 18.09.2019 06:00:00 (CEST)Monte Terminillo, Italy (16219): wind direction: 12.09.2019 06:00:00 - 18.09.2019 06:00:00 (CEST)Monte Terminillo, Italy (16219): sunshine duration: 12.09.2019 06:00:00 - 18.09.2019 06:00:00 (CEST)
Date & Time tt [°C] td [°C] ff [km/h] ff [kn] dd sd [min]
18.09.2019 06:00:00 - - - - - -
18.09.2019 05:00:00 11,9 5,9 15 8 W 0
18.09.2019 04:00:00 12,0 2,9 13 7 W 0
18.09.2019 03:00:00 12,2 5,2 21 11 WNW 0
18.09.2019 02:00:00 12,6 7,9 24 13 WNW 0
18.09.2019 01:00:00 13,0 7,9 16 9 NW 0
18.09.2019 00:00:00 13,4 8,6 18 10 NW 0
17.09.2019 23:00:00 13,8 8,3 18 10 NW 0
17.09.2019 22:00:00 14,6 6,9 18 10 WNW 0
17.09.2019 21:00:00 14,6 7,5 15 8 WNW 0
17.09.2019 20:00:00 16,1 8,5 5 3 WNW 11
17.09.2019 19:00:00 16,7 7,7 21 11 WNW 60
17.09.2019 18:00:00 17,7 9,0 21 11 W 60
17.09.2019 17:00:00 17,9 8,9 4 2 N 60
17.09.2019 16:00:00 17,7 8,4 21 11 WNW 60
17.09.2019 15:00:00 17,5 8,8 16 9 WNW 60
17.09.2019 14:00:00 16,6 9,6 16 9 WNW 60
17.09.2019 13:00:00 15,7 9,0 16 9 WNW 60
17.09.2019 12:00:00 14,2 8,1 13 7 WNW 60
17.09.2019 11:00:00 13,3 8,5 11 6 NW 60
17.09.2019 10:00:00 12,0 8,0 16 9 NNW 60
17.09.2019 09:00:00 11,5 7,5 16 9 NNW 60
17.09.2019 08:00:00 11,3 7,2 15 8 NNW 34
17.09.2019 07:00:00 11,4 7,7 18 10 NNW 0
17.09.2019 06:00:00 11,4 6,9 16 9 NNW 0
17.09.2019 05:00:00 11,8 8,3 21 11 NNW 0
17.09.2019 04:00:00 12,2 9,1 21 11 NW 0
17.09.2019 03:00:00 12,4 9,4 18 10 NW 0
17.09.2019 02:00:00 12,8 8,3 11 6 NW 0
17.09.2019 01:00:00 13,1 8,4 9 5 NW 0
17.09.2019 00:00:00 13,6 5,8 11 6 NNW 0
16.09.2019 23:00:00 13,9 9,2 13 7 NNW 0
16.09.2019 22:00:00 14,0 10,6 4 2 N 0
16.09.2019 21:00:00 15,6 9,3 9 5 NNW 0
16.09.2019 20:00:00 16,4 8,9 21 11 WNW 6
16.09.2019 19:00:00 17,4 9,8 15 8 WNW 45
16.09.2019 18:00:00 18,0 9,5 18 10 WNW 27
16.09.2019 17:00:00 18,1 10,2 16 9 WNW 53
16.09.2019 16:00:00 17,9 9,9 15 8 WNW 60
16.09.2019 15:00:00 17,2 11,1 15 8 WNW 60
16.09.2019 14:00:00 16,9 10,8 13 7 WNW 39
16.09.2019 13:00:00 15,5 10,0 13 7 WNW 60
16.09.2019 12:00:00 14,5 6,7 4 2 N 56
16.09.2019 11:00:00 13,4 5,8 5 3 NNW 29
16.09.2019 10:00:00 12,7 6,5 8 4 NNW 35
16.09.2019 09:00:00 12,2 6,8 15 8 NW 33
16.09.2019 08:00:00 12,1 6,6 15 8 NW 25
16.09.2019 07:00:00 12,2 6,2 16 9 WNW 0
16.09.2019 06:00:00 12,5 5,6 16 9 WNW 0
16.09.2019 05:00:00 13,2 6,7 16 9 WNW 0
16.09.2019 04:00:00 13,6 9,2 21 11 WNW 0
16.09.2019 03:00:00 13,8 8,8 11 6 W 0
16.09.2019 02:00:00 14,2 9,0 4 2 N 0
16.09.2019 01:00:00 14,4 7,1 8 4 W 0
16.09.2019 00:00:00 14,7 6,0 5 3 W 0
15.09.2019 23:00:00 14,9 5,3 5 3 S 0
15.09.2019 22:00:00 15,4 9,2 8 4 ESE 0
15.09.2019 21:00:00 16,1 9,1 5 3 SE 0
15.09.2019 20:00:00 16,6 9,6 8 4 ESE 0
15.09.2019 19:00:00 17,4 10,2 8 4 NW 0
15.09.2019 18:00:00 18,3 9,8 8 4 WNW 17
15.09.2019 17:00:00 18,8 10,0 4 2 N 0
15.09.2019 16:00:00 19,0 10,3 5 3 NW 24
15.09.2019 15:00:00 18,5 9,5 4 2 N 60
15.09.2019 14:00:00 17,7 9,4 5 3 - 60
15.09.2019 13:00:00 16,5 7,4 4 2 N 60
15.09.2019 12:00:00 15,7 -1,7 4 2 N 60
15.09.2019 11:00:00 15,1 -0,2 4 2 N 53
15.09.2019 10:00:00 13,9 0,4 4 2 N 60
15.09.2019 09:00:00 13,2 1,0 9 5 ESE 60
15.09.2019 08:00:00 13,2 0,5 5 3 SE 34
15.09.2019 07:00:00 13,5 -3,3 16 9 ESE 0
15.09.2019 06:00:00 13,1 0,0 5 3 SSE 0
15.09.2019 05:00:00 13,2 1,1 5 3 W 0
15.09.2019 04:00:00 13,7 2,0 13 7 NW 0
15.09.2019 03:00:00 13,9 2,5 4 2 S 0
15.09.2019 02:00:00 14,1 2,6 4 2 N 0
15.09.2019 01:00:00 14,1 3,9 4 2 N 0
15.09.2019 00:00:00 14,6 5,0 4 2 N 0
14.09.2019 23:00:00 15,0 5,8 4 2 N 0
14.09.2019 22:00:00 15,3 6,6 4 2 N 0
14.09.2019 21:00:00 15,8 6,4 11 6 NNW 0
14.09.2019 20:00:00 16,5 7,3 13 7 WNW 16
14.09.2019 19:00:00 16,7 5,7 9 5 NNW 60
14.09.2019 18:00:00 16,9 7,0 11 6 E 60
14.09.2019 17:00:00 16,7 7,0 4 2 N 60
14.09.2019 16:00:00 16,5 5,0 9 5 SE 60
14.09.2019 15:00:00 16,5 4,6 15 8 SE 60
14.09.2019 14:00:00 16,6 5,9 18 10 SE 60
14.09.2019 13:00:00 16,6 7,4 15 8 SE 60
14.09.2019 12:00:00 16,1 6,7 8 4 SE 60
14.09.2019 11:00:00 15,1 0,7 4 2 N 60
14.09.2019 10:00:00 14,8 -11,6 4 2 N 60
14.09.2019 09:00:00 12,1 -4,6 4 2 N 60
14.09.2019 08:00:00 12,0 -8,5 11 6 ESE 36
14.09.2019 07:00:00 12,1 -6,2 8 4 NNW 0
14.09.2019 06:00:00 12,4 -8,2 11 6 NW 0
14.09.2019 05:00:00 12,5 -9,2 9 5 NW 0
14.09.2019 04:00:00 12,7 -4,4 5 3 NW 0
14.09.2019 03:00:00 13,2 -4,6 4 2 N 0
14.09.2019 02:00:00 13,2 -3,0 5 3 ESE 0
14.09.2019 01:00:00 13,4 0,6 16 9 SE 0
14.09.2019 00:00:00 14,0 1,9 9 5 SE 0
13.09.2019 23:00:00 14,8 8,1 4 2 N 0
13.09.2019 22:00:00 15,3 8,0 9 5 NNW 0
13.09.2019 21:00:00 16,0 8,6 2 1 NW 0
13.09.2019 20:00:00 17,2 9,0 4 2 N 18
13.09.2019 19:00:00 17,2 9,2 4 2 N 57
13.09.2019 18:00:00 17,2 8,7 11 6 NW 22
13.09.2019 17:00:00 16,4 8,4 5 3 WNW 12
13.09.2019 16:00:00 16,1 8,6 4 2 N 37
13.09.2019 15:00:00 15,4 6,2 8 4 SE 49
13.09.2019 14:00:00 14,3 6,0 13 7 SSE 60
13.09.2019 13:00:00 13,8 7,9 4 2 N 60
13.09.2019 12:00:00 13,4 8,2 16 9 ESE 60
13.09.2019 11:00:00 12,8 7,4 13 7 SE 60
13.09.2019 10:00:00 12,0 7,0 4 2 N 60
13.09.2019 09:00:00 11,1 5,7 13 7 ESE 60
13.09.2019 08:00:00 10,7 5,2 9 5 ESE 38
13.09.2019 07:00:00 11,0 5,2 16 9 ESE 0
13.09.2019 06:00:00 11,0 4,6 21 11 E 0
13.09.2019 05:00:00 10,9 3,2 24 13 ESE 0
13.09.2019 04:00:00 11,0 -4,2 24 13 ESE 0
13.09.2019 03:00:00 11,5 -7,0 26 14 E 0
13.09.2019 02:00:00 10,7 -11,7 28 15 ESE 0
13.09.2019 01:00:00 10,2 -0,2 35 19 E 0
13.09.2019 00:00:00 10,4 4,0 37 20 E 0
12.09.2019 23:00:00 - - - - - -
12.09.2019 22:00:00 12,6 3,5 24 13 E 0
12.09.2019 21:00:00 14,3 5,7 18 10 E 0
12.09.2019 20:00:00 15,4 3,9 22 12 E 20
12.09.2019 19:00:00 15,1 3,8 4 2 N 60
12.09.2019 18:00:00 15,2 2,8 24 13 ENE 60
12.09.2019 17:00:00 17,4 5,0 15 8 E 60
12.09.2019 16:00:00 17,5 6,7 15 8 E 57
12.09.2019 15:00:00 16,8 6,1 15 8 NW 60
12.09.2019 14:00:00 16,0 5,2 8 4 - 60
12.09.2019 13:00:00 15,7 -1,6 4 2 N 60
12.09.2019 12:00:00 14,0 -0,6 4 2 N 60
12.09.2019 11:00:00 13,1 -2,9 11 6 N 60
12.09.2019 10:00:00 11,4 -3,7 8 4 NW 60
12.09.2019 09:00:00 10,3 -4,0 4 2 N 60
12.09.2019 08:00:00 10,2 -2,9 13 7 N 40
12.09.2019 07:00:00 10,3 -3,7 8 4 NW 0
12.09.2019 06:00:00 10,5 -3,9 5 3 SE 0

tt = temperature
td = dewpoint
ff = wind speed
dd = wind direction
sd = sunshine duration

Next stations